INLO2: Newt Graham Lock And Dam (L&D 18)

Data processed at Fri Dec 08 2017 23:33


All information presented herein is the property of the government of the United States of America and may be revised or deleted at any time without prior notice.
Dissemination of this information without the expressed written consent of the Public Affairs Office, Tulsa District U.S. Army Corps of Engineers is strictly prohibited.
These data are gathered electronically and, as presented, have not undergone any form of quality control. These data are not guaranteed to be valid or correct.
Go to home page.
Go to station list.

Upstream stations:

Downstream station:
Previous Day
Next Day
Current Day
    
SHEF ID:       INLO2     Newt Graham Lock And Dam
STATION TYPE:  NAVIGATION LOCK
Normal Pool:  Bottom =   532.00, Top =   532.50

               PRECIP ELEVATION   STORAGE   TW-ELEV LOCK-ELEV    INFLOW   RELEASE    GATE-1    GATE-2    GATE-3  AIR-TEMP  WIND-DIRWIND-SPEED REL-HUMID SOLAR-RAD   VOLTAGE  BAT-LOAD
                   in        ft     ac-ft        ft        ft       cfs       cfs        ft        ft        ft         F       deg       mph         %      W/m2      volt      volt
              Ccp-Rev   Ccp-Rev   Ccp-Rev   Ccp-Rev   Ccp-Rev  Regi-Rev  Regi-Rev   Ccp-Rev   Ccp-Rev   Ccp-Rev   Ccp-Rev   Ccp-Rev   Ccp-Rev   Ccp-Rev   Ccp-Rev   Ccp-Rev   Ccp-Rev
(US/Central)
12/06 00:00      0.00    532.95     24953    512.05      ----        41         0      ----      ----      ----     33.71    189.40      1.00     66.80      0.00     12.60     11.61
12/06 01:00      0.00    532.92     24907    512.03      ----        75         0      ----      ----      ----     32.14    173.10      0.70     67.42      0.00     12.76     11.53
12/06 02:00      0.00    532.94     24938      ----      ----       113         0      ----      ----      ----     32.34    197.80      0.80     65.97      0.00     12.61     11.53
12/06 03:00      0.00    532.95     24953    512.11      ----       109         0      ----      ----      ----     32.58    179.10      0.70     67.96      0.00     13.55     11.61
12/06 04:00      0.00      ----      ----    512.06      ----      -901      -901      ----      ----      ----     30.58    217.20      0.60     76.39      0.00     13.55     11.53
12/06 05:00      0.00    532.91     24891    512.06      ----      -901      -901      ----      ----      ----     30.47    187.20      1.30     70.76      0.00     13.54     11.61
12/06 06:00      0.00    532.97     24984    512.17      ----        94         0      ----      ----      ----     28.45    113.50      1.20     74.81      0.00     13.52     11.30
12/06 07:00      0.00    532.98     24999    512.04      ----        78         0      ----      ----      ----     30.72    210.60      1.20     73.50      0.00     13.52     11.30
12/06 08:00      0.00    533.00     25030    512.07      ----        58         0      ----      ----      ----     28.69    123.60      1.20     81.41      7.00     13.52     11.30
12/06 09:00      0.00    532.95     24953    512.07      ----        17         0      ----      ----      ----     31.69     53.20      0.70     70.81    183.90     12.44     11.37
12/06 10:00      0.00    533.00     25030    512.08      ----        17         0      ----      ----      ----     37.65    310.80      3.10     57.07    336.60     13.54     11.61
12/06 11:00      0.00    533.02     25061    512.03      ----        17         0      ----      ----      ----     42.85    343.30      3.80     48.24    473.20     13.53     11.37
12/06 12:00      0.00    533.02     25061    512.07      ----        21         0      ----      ----      ----     47.61    352.50      3.40     41.99    551.50     12.64     11.37
12/06 13:00      0.00    533.00     25030    512.10      ----         4         0      ----      ----      ----     50.47    320.00      4.40     38.59    565.50     13.53     11.37
12/06 14:00      0.00    533.01     25045    512.06      ----         4         0      ----      ----      ----     52.57    322.40      5.70     32.77    515.20     12.66     11.61
12/06 15:00      0.00    533.04     25092    512.04      ----         4         0      ----      ----      ----     54.00    338.40      9.20     30.56    411.60     13.56     11.61
12/06 16:00      0.00    533.03     25076    512.07      ----         4         0      ----      ----      ----     54.90    318.40      7.60     30.48    266.00     13.53     11.37
12/06 17:00      0.00    533.01     25045    512.13      ----         0         0      ----      ----      ----     54.23    334.70      9.20     29.96     90.20     13.52     11.37
12/06 18:00      0.00    532.98     24999    512.06      ----         0         0      ----      ----      ----     51.08    332.30      5.90     35.48      0.00     13.53     11.46
12/06 19:00      0.00    532.98     24999    512.00      ----         0         0      ----      ----      ----     47.95    358.00      4.20     40.28      0.00     13.52     11.37
12/06 20:00      0.00    532.99     25015    512.08      ----         0         0      ----      ----      ----     45.36    351.20      1.40     48.72      0.00     13.52     11.37
12/06 21:00      0.00    532.98     24999    512.09      ----         0         0      ----      ----      ----     43.14    336.70      1.20     55.05      0.00     13.52     11.37
12/06 22:00      0.00    532.96     24968    512.11      ----         0         0      ----      ----      ----     38.93     29.00      0.40     64.06      0.00     13.51     11.37
12/06 23:00      0.00    532.98     24999    512.04      ----         0         0      ----      ----      ----     34.65     23.20      2.30     70.85      0.00     13.51     11.46